Time;durP1;ratioP1;P1;durP2;ratioP2;P2;SDS_P1;SDS_P2;PMS_P1;PMS_P2;Temp;Humidity;BMP_temperature;BMP_pressure;BME280_temperature;BME280_humidity;BME280_pressure;Samples;Min_cycle;Max_cycle;Signal;HPM_P1;HPM_P2
2022/06/11 00:00:57;;;;;;;17.38;4.55;;;;;;;16.25;100.00;101548.59;4757818;30;20042;-79
2022/06/11 00:03:22;;;;;;;16.05;5.05;;;;;;;16.13;100.00;101527.56;4773601;30;20067;-80
2022/06/11 00:05:49;;;;;;;17.00;4.90;;;;;;;16.26;100.00;101547.53;4756370;30;20414;-79
2022/06/11 00:08:15;;;;;;;18.85;5.07;;;;;;;16.27;100.00;101551.94;4788400;30;20520;-81
2022/06/11 00:10:41;;;;;;;14.95;4.53;;;;;;;16.28;100.00;101556.28;4772820;30;20062;-78
2022/06/11 00:13:07;;;;;;;15.25;4.78;;;;;;;16.17;100.00;101533.38;4787189;30;20435;-79
2022/06/11 00:15:33;;;;;;;14.25;4.40;;;;;;;16.22;100.00;101558.00;4757924;30;20473;-78
2022/06/11 00:17:59;;;;;;;15.13;4.60;;;;;;;16.28;100.00;101557.13;4788031;30;20034;-79
2022/06/11 00:20:29;;;;;;;19.00;5.28;;;;;;;16.18;100.00;101545.91;4771227;30;20035;-80
2022/06/11 00:22:55;;;;;;;14.25;4.70;;;;;;;16.26;100.00;101561.97;4755498;30;20076;-78
2022/06/11 00:25:21;;;;;;;16.23;4.93;;;;;;;16.27;100.00;101562.78;4755773;30;20035;-78
2022/06/11 00:27:47;;;;;;;17.50;5.40;;;;;;;16.03;100.00;101526.38;4775882;30;20035;-78
2022/06/11 00:30:15;;;;;;;25.30;5.80;;;;;;;16.18;100.00;101546.72;4761980;30;20039;-78
2022/06/11 00:32:41;;;;;;;18.20;5.72;;;;;;;16.16;100.00;101556.16;4760178;30;20114;-81
2022/06/11 00:35:07;;;;;;;22.08;5.30;;;;;;;15.58;100.00;101467.50;4792658;30;20142;-79
2022/06/11 00:37:33;;;;;;;14.85;5.88;;;;;;;16.06;100.00;101547.63;4776016;30;20028;-80
2022/06/11 00:39:59;;;;;;;21.98;6.60;;;;;;;16.16;100.00;101570.56;4773877;30;20466;-80
2022/06/11 00:42:31;;;;;;;21.80;6.50;;;;;;;16.09;100.00;101563.50;4760842;30;20451;-80
2022/06/11 00:45:22;;;;;;;17.35;6.00;;;;;;;16.13;100.00;101567.47;4769125;30;20029;-80
2022/06/11 00:47:53;;;;;;;23.27;5.95;;;;;;;16.07;100.00;101568.34;4758585;30;20054;-80
2022/06/11 00:50:42;;;;;;;21.80;5.45;;;;;;;15.96;100.00;101551.69;4773101;30;20451;-80
2022/06/11 00:53:28;;;;;;;24.70;5.85;;;;;;;15.93;100.00;101554.81;4779216;30;20114;-79
2022/06/11 00:55:54;;;;;;;24.15;5.07;;;;;;;15.87;100.00;101555.69;4779590;30;20042;-81
2022/06/11 00:58:25;;;;;;;19.98;5.28;;;;;;;15.85;100.00;101562.38;4772892;30;20035;-81
2022/06/11 01:00:55;;;;;;;27.75;5.55;;;;;;;15.68;100.00;101548.47;4772809;29;20024;-80
2022/06/11 01:03:26;;;;;;;23.23;6.00;;;;;;;15.79;100.00;101557.78;4813357;29;20085;-81
2022/06/11 01:06:20;;;;;;;26.90;5.63;;;;;;;15.74;100.00;101559.28;4811489;29;20034;-80
2022/06/11 01:08:58;;;;;;;22.02;5.57;;;;;;;15.77;100.00;101560.75;4795909;29;20176;-80
2022/06/11 01:11:54;;;;;;;26.38;5.65;;;;;;;15.78;100.00;101564.28;4795949;29;20027;-80
2022/06/11 01:14:54;;;;;;;;;;;;;;;15.77;100.00;101558.03;4780229;29;20092;-80
2022/06/11 01:17:28;;;;;;;21.98;5.35;;;;;;;15.77;100.00;101559.91;4754484;30;19914;-80
2022/06/11 01:19:57;;;;;;;24.15;5.45;;;;;;;15.77;100.00;101555.31;4771135;30;20035;-80
2022/06/11 01:23:00;;;;;;;21.92;5.50;;;;;;;15.72;100.00;101536.94;4776679;30;20032;-80
2022/06/11 01:25:36;;;;;;;24.75;6.15;;;;;;;15.76;100.00;101539.22;4791847;30;20039;-80
2022/06/11 01:28:47;;;;;;;29.05;6.40;;;;;;;15.78;100.00;101539.88;4776952;29;20031;-80
2022/06/11 01:31:22;;;;;;;24.88;5.45;;;;;;;15.63;100.00;101526.53;4774618;30;20067;-80
2022/06/11 01:34:06;;;;;;;24.95;5.63;;;;;;;15.72;100.00;101536.13;4771392;29;20053;-81
2022/06/11 01:36:43;;;;;;;22.03;5.30;;;;;;;15.68;100.00;101534.88;4793718;29;20035;-80
2022/06/11 01:39:22;;;;;;;23.52;5.75;;;;;;;15.67;100.00;101530.53;4779337;30;20028;-80
2022/06/11 01:41:54;;;;;;;23.35;5.68;;;;;;;15.68;100.00;101535.72;4801374;29;20042;-80
2022/06/11 01:44:24;;;;;;;28.30;6.57;;;;;;;15.69;100.00;101533.84;4809134;29;20108;-81
2022/06/11 01:46:52;;;;;;;18.73;5.22;;;;;;;15.68;100.00;101537.59;4796794;29;20043;-80
2022/06/11 01:49:20;;;;;;;26.08;6.68;;;;;;;15.68;100.00;101537.59;4776767;30;20027;-80
2022/06/11 01:52:07;;;;;;;27.60;6.05;;;;;;;15.67;100.00;101530.53;4786987;29;20063;-80
2022/06/11 01:54:33;;;;;;;23.70;5.75;;;;;;;15.64;100.00;101534.47;4773114;30;20123;-80
2022/06/11 01:57:29;;;;;;;22.20;6.00;;;;;;;15.64;100.00;101539.06;4758896;29;20063;-80
2022/06/11 02:00:00;;;;;;;30.98;6.68;;;;;;;15.56;100.00;101542.81;4779750;30;20059;-80
2022/06/11 02:02:34;;;;;;;30.67;6.45;;;;;;;15.59;100.00;101547.81;4783840;29;20413;-80
2022/06/11 02:05:13;;;;;;;25.08;6.28;;;;;;;15.47;100.00;101525.97;4797026;29;20039;-80
2022/06/11 02:07:42;;;;;;;31.05;6.72;;;;;;;15.35;100.00;101511.41;4815000;29;20361;-81
2022/06/11 02:10:22;;;;;;;28.30;6.32;;;;;;;15.53;100.00;101537.84;4812568;29;20034;-80
2022/06/11 02:13:01;;;;;;;32.20;7.10;;;;;;;15.46;100.00;101537.88;4809356;29;20118;-80
2022/06/11 02:15:43;;;;;;;24.85;6.13;;;;;;;15.47;100.00;101544.94;4810665;29;20095;-79
2022/06/11 02:18:15;;;;;;;25.75;6.25;;;;;;;15.45;100.00;101548.91;4805355;29;20086;-80
2022/06/11 02:20:55;;;;;;;26.65;6.15;;;;;;;15.35;100.00;101540.41;4795166;29;20041;-79
2022/06/11 02:23:33;;;;;;;24.15;5.97;;;;;;;15.34;100.00;101541.44;4809048;29;20346;-79
2022/06/11 02:26:02;;;;;;;24.35;6.18;;;;;;;15.24;100.00;101533.75;4810148;29;20068;-80
2022/06/11 02:28:33;;;;;;;24.58;5.88;;;;;;;15.33;100.00;101548.75;4790580;30;20058;-80
2022/06/11 02:31:06;;;;;;;24.98;6.65;;;;;;;15.23;100.00;101532.94;4792721;29;20038;-80
2022/06/11 02:33:34;;;;;;;28.98;6.63;;;;;;;15.20;100.00;101521.69;4809452;29;20066;-80
2022/06/11 02:36:27;;;;;;;29.98;7.18;;;;;;;15.27;100.00;101536.03;4809821;29;20106;-79
2022/06/11 02:38:54;;;;;;;26.08;6.60;;;;;;;15.30;100.00;101540.19;4787950;29;20071;-80
2022/06/11 02:41:25;;;;;;;26.08;6.82;;;;;;;15.27;100.00;101545.00;4778474;29;20138;-80
2022/06/11 02:43:50;;;;;;;25.83;7.38;;;;;;;15.06;100.00;101514.59;4809320;29;20110;-79
2022/06/11 02:46:50;;;;;;;29.80;7.47;;;;;;;15.27;100.00;101544.19;4794057;29;20073;-80
2022/06/11 02:49:17;;;;;;;28.88;6.78;;;;;;;15.24;100.00;101537.28;4804446;29;20098;-80
2022/06/11 02:51:43;;;;;;;36.35;7.10;;;;;;;15.30;100.00;101541.03;4809424;29;20053;-80
2022/06/11 02:54:08;;;;;;;29.77;6.72;;;;;;;15.16;100.00;101515.00;4808823;29;20030;-80
2022/06/11 02:56:34;;;;;;;32.28;7.43;;;;;;;15.28;100.00;101545.84;4809631;29;20031;-80
2022/06/11 02:58:59;;;;;;;33.30;6.75;;;;;;;15.06;100.00;101503.75;4790807;29;20041;-79
2022/06/11 03:01:26;;;;;;;24.02;6.05;;;;;;;15.13;100.00;101508.13;4807930;29;20150;-80
2022/06/11 03:03:53;;;;;;;27.27;6.13;;;;;;;15.16;100.00;101520.41;4790705;29;20058;-79
2022/06/11 03:06:21;;;;;;;34.15;7.22;;;;;;;15.29;100.00;101542.06;4809462;29;20059;-80
2022/06/11 03:08:47;;;;;;;23.50;5.88;;;;;;;15.31;100.00;101540.00;4791294;29;20047;-80
2022/06/11 03:11:13;;;;;;;26.80;6.50;;;;;;;15.41;100.00;101555.81;4808276;29;20130;-80
2022/06/11 03:13:39;;;;;;;32.90;6.63;;;;;;;15.23;100.00;101534.78;4806568;29;20113;-80
2022/06/11 03:16:06;;;;;;;26.48;6.50;;;;;;;15.01;100.00;101494.38;4808350;29;20027;-80
2022/06/11 03:18:32;;;;;;;29.73;6.15;;;;;;;15.32;100.00;101540.81;4799874;29;20049;-80
2022/06/11 03:20:58;;;;;;;25.67;6.03;;;;;;;15.33;100.00;101546.03;4789246;29;20031;-80
2022/06/11 03:23:23;;;;;;;28.80;6.18;;;;;;;15.33;100.00;101551.47;4775862;29;20046;-80
2022/06/11 03:25:49;;;;;;;25.73;5.63;;;;;;;15.27;100.00;101538.75;4778744;29;20030;-81
2022/06/11 03:28:22;;;;;;;26.88;6.20;;;;;;;15.39;100.00;101552.47;4788380;30;20134;-80
2022/06/11 03:30:48;;;;;;;30.98;6.28;;;;;;;15.50;100.00;101560.81;4804156;29;20339;-80
2022/06/11 03:33:16;;;;;;;28.02;6.80;;;;;;;15.46;100.00;101548.72;4792120;29;20027;-80
2022/06/11 03:35:43;;;;;;;32.30;7.40;;;;;;;15.39;100.00;101504.50;4792245;29;20046;-80
2022/06/11 03:38:09;;;;;;;28.52;7.13;;;;;;;15.57;100.00;101547.22;4788888;30;20039;-79
2022/06/11 03:40:35;;;;;;;28.85;6.60;;;;;;;15.58;100.00;101548.03;4791493;29;20033;-80
2022/06/11 03:43:00;;;;;;;33.42;6.28;;;;;;;15.47;100.00;101536.00;4807196;29;20534;-80
2022/06/11 03:45:27;;;;;;;29.30;6.55;;;;;;;15.54;100.00;101547.66;4807866;29;20134;-79
2022/06/11 03:47:52;;;;;;;26.10;6.30;;;;;;;15.59;100.00;101552.41;4807606;29;20038;-80
2022/06/11 03:50:25;;;;;;;30.70;6.18;;;;;;;15.63;100.00;101559.06;4808201;29;20058;-80
2022/06/11 03:52:51;;;;;;;31.02;6.50;;;;;;;15.60;100.00;101549.50;4786989;30;20038;-80
2022/06/11 03:55:17;;;;;;;33.72;6.38;;;;;;;15.81;100.00;101551.13;4773421;30;20035;-80
2022/06/11 03:57:44;;;;;;;28.05;6.22;;;;;;;15.91;100.00;101526.22;4791588;29;20030;-81
2022/06/11 04:00:13;;;;;;;30.85;6.65;;;;;;;15.96;100.00;101559.81;4787857;30;20032;-79
2022/06/11 04:02:39;;;;;;;27.27;5.85;;;;;;;15.79;100.00;101526.06;4788108;30;20495;-80
2022/06/11 04:05:06;;;;;;;29.90;6.57;;;;;;;16.48;100.00;101537.97;4771918;29;20039;-80
2022/06/11 04:07:32;;;;;;;24.45;6.00;;;;;;;16.40;100.00;101549.13;4807096;29;20098;-81
2022/06/11 04:09:58;;;;;;;30.98;6.10;;;;;;;16.63;100.00;101535.78;4772727;30;20471;-81
2022/06/11 04:12:23;;;;;;;29.73;6.72;;;;;;;16.95;100.00;101545.78;4791879;29;20102;-80
2022/06/11 04:14:50;;;;;;;24.20;5.82;;;;;;;17.76;100.00;101540.09;4788826;29;20067;-79
2022/06/11 04:17:21;;;;;;;28.80;5.82;;;;;;;17.20;100.00;101534.88;4790190;29;20034;-80
2022/06/11 04:19:49;;;;;;;26.20;5.72;;;;;;;18.00;100.00;101505.63;4790139;29;20030;-79
2022/06/11 04:22:15;;;;;;;26.30;5.70;;;;;;;17.91;100.00;101541.59;4804751;29;20035;-80
2022/06/11 04:24:41;;;;;;;27.98;5.75;;;;;;;17.65;100.00;101546.28;4790735;29;20038;-80
2022/06/11 04:27:09;;;;;;;24.17;6.05;;;;;;;17.20;100.00;101541.13;4786813;30;20037;-80
2022/06/11 04:29:39;;;;;;;27.40;6.18;;;;;;;16.84;100.00;101523.69;4788099;29;20398;-81
2022/06/11 04:32:07;;;;;;;30.40;5.82;;;;;;;18.00;100.00;101551.09;4789945;29;20041;-79
2022/06/11 04:34:33;;;;;;;29.75;6.38;;;;;;;17.95;100.00;101553.69;4789736;29;20496;-80
2022/06/11 04:36:59;;;;;;;20.92;5.70;;;;;;;18.43;100.00;101558.25;4790509;29;20038;-80
2022/06/11 04:39:28;;;;;;;25.60;6.20;;;;;;;17.92;100.00;101552.25;4795868;29;20451;-80
2022/06/11 04:41:54;;;;;;;24.52;5.40;;;;;;;17.48;100.00;101556.97;4804821;29;20045;-79
2022/06/11 04:44:20;;;;;;;22.85;5.22;;;;;;;17.14;100.00;101542.84;4789723;29;20395;-80
2022/06/11 04:46:46;;;;;;;35.17;6.00;;;;;;;16.87;100.00;101534.13;4790127;29;20042;-80
2022/06/11 04:49:12;;;;;;;31.25;6.18;;;;;;;16.69;100.00;101544.94;4805444;29;20050;-80
2022/06/11 04:51:38;;;;;;;30.08;6.70;;;;;;;16.60;100.00;101555.22;4790836;29;20497;-80
2022/06/11 04:54:04;;;;;;;27.05;5.75;;;;;;;16.57;100.00;101549.41;4789069;29;20030;-80
2022/06/11 04:56:30;;;;;;;29.40;6.25;;;;;;;17.03;100.00;101559.09;4803611;29;20023;-81
2022/06/11 04:58:57;;;;;;;29.33;5.50;;;;;;;17.01;100.00;101547.59;4787086;29;20117;-80
2022/06/11 05:01:23;;;;;;;32.72;6.72;;;;;;;16.98;100.00;101556.19;4812183;29;20079;-81
2022/06/11 05:03:48;;;;;;;29.90;6.22;;;;;;;17.13;100.00;101556.69;4803040;29;20039;-80
2022/06/11 05:06:16;;;;;;;34.88;6.15;;;;;;;17.45;100.00;101551.13;4807652;29;20027;-80
2022/06/11 05:08:42;;;;;;;21.88;5.68;;;;;;;17.60;100.00;101554.28;4790905;29;20031;-80
2022/06/11 05:11:08;;;;;;;27.00;5.90;;;;;;;17.20;100.00;101529.44;4778680;29;20145;-80
2022/06/11 05:13:34;;;;;;;32.78;6.55;;;;;;;17.09;100.00;101520.97;4810994;29;20031;-80
2022/06/11 05:16:00;;;;;;;26.98;6.15;;;;;;;17.36;100.00;101567.75;4792866;30;20031;-80
2022/06/11 05:18:28;;;;;;;32.20;6.38;;;;;;;16.83;100.00;101532.91;4762644;30;20031;-81
2022/06/11 05:20:54;;;;;;;23.83;5.72;;;;;;;16.74;100.00;101539.66;4793617;29;20393;-80
2022/06/11 05:23:19;;;;;;;26.05;5.97;;;;;;;16.79;100.00;101574.38;4763069;30;20046;-80
2022/06/11 05:25:46;;;;;;;27.15;5.65;;;;;;;16.94;100.00;101574.03;4777595;29;20043;-80
2022/06/11 05:28:18;;;;;;;31.52;6.15;;;;;;;16.99;100.00;101574.19;4794646;29;20030;-80
2022/06/11 05:30:44;;;;;;;27.52;5.45;;;;;;;17.13;100.00;101565.69;4796236;29;20425;-82
2022/06/11 05:33:10;;;;;;;26.23;5.60;;;;;;;17.71;100.00;101569.84;4793214;29;20122;-80
2022/06/11 05:35:36;;;;;;;27.45;5.82;;;;;;;18.13;100.00;101544.66;4763447;29;20078;-80
2022/06/11 05:38:05;;;;;;;21.73;5.18;;;;;;;18.52;100.00;101565.84;4805400;29;20031;-79
2022/06/11 05:40:35;;;;;;;21.73;5.50;;;;;;;18.72;100.00;101571.00;4791164;30;20052;-80
2022/06/11 05:43:01;;;;;;;30.85;5.55;;;;;;;18.76;100.00;101572.19;4808416;29;20269;-80
2022/06/11 05:45:31;;;;;;;30.90;6.15;;;;;;;18.56;100.00;101563.50;4794379;29;20502;-78
2022/06/11 05:47:58;;;;;;;19.85;5.80;;;;;;;18.76;100.00;101571.38;4794733;29;20030;-81
2022/06/11 05:50:28;;;;;;;27.58;5.93;;;;;;;18.54;100.00;101561.00;4794386;29;20060;-80
2022/06/11 05:52:55;;;;;;;34.88;5.65;;;;;;;18.37;100.00;101567.34;4794957;29;20023;-80
2022/06/11 05:55:24;;;;;;;28.00;5.78;;;;;;;18.11;100.00;101544.84;4796312;29;20042;-80
2022/06/11 05:57:51;;;;;;;26.30;5.53;;;;;;;18.17;100.00;101535.75;4808666;29;20027;-80
2022/06/11 06:00:19;;;;;;;27.85;6.32;;;;;;;18.35;100.00;101569.47;4792718;30;20096;-81
2022/06/11 06:02:45;;;;;;;29.90;5.60;;;;;;;18.19;100.00;101562.78;4791124;29;20055;-80
2022/06/11 06:05:15;;;;;;;28.60;6.38;;;;;;;18.01;100.00;101580.84;4791637;29;20133;-79
2022/06/11 06:07:41;;;;;;;23.70;5.65;;;;;;;17.85;100.00;101578.75;4794957;29;20039;-80
2022/06/11 06:10:06;;;;;;;24.92;6.38;;;;;;;17.91;100.00;101569.63;4792609;29;20033;-79
2022/06/11 06:12:33;;;;;;;26.73;6.25;;;;;;;17.75;100.00;101562.91;4802880;29;20474;-80
2022/06/11 06:15:14;;;;;;;26.02;6.05;;;;;;;17.70;100.00;101581.81;4788361;29;20082;-80
2022/06/11 06:17:40;;;;;;;28.08;5.70;;;;;;;17.51;100.00;101566.53;4803099;29;20420;-80
2022/06/11 06:20:09;;;;;;;25.33;5.90;;;;;;;17.53;100.00;101575.31;4788171;29;20038;-81
2022/06/11 06:22:34;;;;;;;30.80;6.38;;;;;;;17.59;100.00;101588.84;4790811;29;20031;-80
2022/06/11 06:25:00;;;;;;;27.27;6.10;;;;;;;17.70;100.00;101581.81;4763350;29;20073;-80
2022/06/11 06:27:26;;;;;;;27.52;6.07;;;;;;;18.07;100.00;101569.00;4792761;29;20038;-80
2022/06/11 06:29:52;;;;;;;27.67;6.10;;;;;;;17.87;100.00;101551.28;4794735;29;20043;-81
2022/06/11 06:32:17;;;;;;;26.27;5.88;;;;;;;18.11;100.00;101577.53;4791212;29;20049;-81
2022/06/11 06:34:43;;;;;;;26.60;5.60;;;;;;;18.64;100.00;101584.97;4765503;29;20035;-79
2022/06/11 06:37:09;;;;;;;22.73;5.53;;;;;;;18.98;100.00;101577.94;4793681;29;20027;-80
2022/06/11 06:39:35;;;;;;;28.70;5.85;;;;;;;19.34;100.00;101586.94;4791929;29;20042;-81
2022/06/11 06:42:00;;;;;;;28.80;5.82;;;;;;;19.45;100.00;101571.63;4790214;29;20023;-81
2022/06/11 06:44:26;;;;;;;23.15;5.72;;;;;;;19.45;100.00;101574.34;4790423;29;20154;-81
2022/06/11 06:46:51;;;;;;;22.63;5.70;;;;;;;19.61;100.00;101584.53;4778097;30;20137;-80
2022/06/11 06:49:17;;;;;;;24.23;5.50;;;;;;;19.84;100.00;101575.50;4774082;29;20035;-80
2022/06/11 06:51:43;;;;;;;30.67;5.55;;;;;;;20.15;100.00;101595.22;4777636;29;20065;-79
2022/06/11 06:54:09;;;;;;;22.85;5.38;;;;;;;20.27;99.76;101589.72;4792863;29;20139;-79
2022/06/11 06:56:34;;;;;;;21.05;4.70;;;;;;;20.50;99.73;101586.03;4807361;29;20031;-79
2022/06/11 06:59:04;;;;;;;25.38;5.70;;;;;;;20.47;97.40;101589.25;4793823;29;20149;-79
2022/06/11 07:01:31;;;;;;;22.05;5.30;;;;;;;20.39;98.73;101593.19;4791423;29;20060;-81
2022/06/11 07:03:57;;;;;;;22.83;5.30;;;;;;;19.85;100.00;101560.75;4792416;29;20023;-80
2022/06/11 07:06:23;;;;;;;24.33;5.82;;;;;;;19.98;100.00;101592.41;4790335;30;20098;-79
2022/06/11 07:08:50;;;;;;;25.83;5.68;;;;;;;19.66;100.00;101590.13;4761477;30;20115;-80
2022/06/11 07:11:16;;;;;;;23.30;6.18;;;;;;;19.53;100.00;101598.53;4792961;29;20050;-80
2022/06/11 07:13:42;;;;;;;23.27;5.57;;;;;;;19.62;100.00;101579.91;4806068;29;20062;-81
2022/06/11 07:16:07;;;;;;;24.92;5.50;;;;;;;19.19;100.00;101595.59;4791519;29;20039;-80
2022/06/11 07:18:47;;;;;;;23.48;5.70;;;;;;;19.14;100.00;101598.22;4807253;29;20350;-82
2022/06/11 07:21:21;;;;;;;22.83;5.38;;;;;;;19.42;100.00;101585.75;4804864;29;20041;-83
2022/06/11 07:23:55;;;;;;;28.80;5.93;;;;;;;19.76;100.00;101591.41;4823610;29;20030;-81
2022/06/11 07:26:26;;;;;;;21.90;5.53;;;;;;;19.77;99.08;101574.81;4785470;30;20111;-82
2022/06/11 07:29:00;;;;;;;21.23;4.95;;;;;;;19.76;97.52;101586.78;4802359;29;20130;-82
2022/06/11 07:31:29;;;;;;;21.90;5.40;;;;;;;19.89;99.21;101588.41;4814910;29;20054;-82
2022/06/11 07:33:54;;;;;;;19.63;5.90;;;;;;;19.99;99.00;101552.28;4792525;29;20183;-82
2022/06/11 07:36:20;;;;;;;23.83;5.43;;;;;;;20.41;97.26;101586.41;4776387;29;20091;-82
2022/06/11 07:38:46;;;;;;;20.75;4.95;;;;;;;20.45;97.55;101564.88;4793019;29;20517;-82
2022/06/11 07:41:11;;;;;;;26.73;6.00;;;;;;;20.60;95.67;101588.97;4804053;29;20051;-82
2022/06/11 07:43:36;;;;;;;29.15;5.85;;;;;;;20.58;97.39;101586.47;4807124;29;20142;-81
2022/06/11 07:46:02;;;;;;;26.55;6.80;;;;;;;20.72;96.06;101588.88;4806051;29;20045;-82
2022/06/11 07:48:28;;;;;;;24.13;5.82;;;;;;;20.78;97.27;101569.56;4786715;29;20038;-82
2022/06/11 07:50:53;;;;;;;24.23;6.40;;;;;;;20.87;97.55;101594.63;4790861;29;20482;-82
2022/06/11 07:53:21;;;;;;;21.20;5.57;;;;;;;20.76;98.16;101576.34;4799348;29;20451;-82
2022/06/11 07:55:48;;;;;;;22.10;5.85;;;;;;;20.90;97.95;101593.31;4789797;29;20051;-82
2022/06/11 07:58:16;;;;;;;25.15;5.90;;;;;;;20.80;98.07;101586.56;4799949;29;20035;-82
2022/06/11 08:00:46;;;;;;;21.55;6.15;;;;;;;20.52;99.45;101568.31;4807255;29;20038;-82
2022/06/11 08:03:12;;;;;;;23.00;6.15;;;;;;;20.48;97.02;101580.78;4804553;29;20051;-82
2022/06/11 08:05:38;;;;;;;20.85;5.75;;;;;;;20.48;98.58;101597.19;4784640;29;20344;-82
2022/06/11 08:08:07;;;;;;;25.02;6.15;;;;;;;20.52;99.51;101600.28;4802899;29;20088;-82
2022/06/11 08:10:33;;;;;;;22.42;6.10;;;;;;;20.51;98.97;101587.72;4802483;29;20031;-82
2022/06/11 08:12:59;;;;;;;24.45;6.15;;;;;;;20.53;98.63;101594.59;4798910;29;20054;-81
2022/06/11 08:15:24;;;;;;;22.55;6.43;;;;;;;20.57;99.99;101595.75;4802958;29;20031;-82
2022/06/11 08:17:50;;;;;;;20.15;5.53;;;;;;;20.43;98.99;101569.78;4788786;29;20035;-81
2022/06/11 08:20:20;;;;;;;23.60;6.43;;;;;;;20.72;97.61;101586.97;4798689;29;20142;-81
2022/06/11 08:22:45;;;;;;;24.00;6.25;;;;;;;20.54;98.38;101582.56;4800713;29;20116;-80
2022/06/11 08:25:10;;;;;;;26.40;6.05;;;;;;;20.46;99.08;101582.09;4786379;30;20458;-82
2022/06/11 08:27:36;;;;;;;18.83;5.47;;;;;;;20.65;96.45;101608.19;4787983;29;20095;-83
2022/06/11 08:30:02;;;;;;;23.08;6.35;;;;;;;20.39;96.53;101587.72;4776200;29;20043;-83
2022/06/11 08:32:27;;;;;;;23.60;6.03;;;;;;;20.51;97.38;101601.38;4781081;30;20118;-82
2022/06/11 08:34:53;;;;;;;22.90;5.47;;;;;;;20.60;97.72;101606.19;4757481;30;20128;-82
2022/06/11 08:37:18;;;;;;;20.85;5.45;;;;;;;20.71;97.45;101618.13;4776817;29;20168;-80
2022/06/11 08:39:44;;;;;;;22.73;5.07;;;;;;;20.67;95.07;101616.97;4807350;29;20083;-81
2022/06/11 08:42:38;;;;;;;22.83;5.50;;;;;;;20.73;95.00;101606.94;4749794;30;20039;-83
2022/06/11 08:45:18;;;;;;;24.67;5.47;;;;;;;20.50;96.45;101581.38;4793212;29;20067;-82
2022/06/11 08:48:01;;;;;;;21.30;5.78;;;;;;;20.62;95.50;101579.41;4809864;29;20027;-79
2022/06/11 08:50:37;;;;;;;19.83;5.57;;;;;;;20.67;95.91;101605.22;4794235;29;20034;-81
2022/06/11 08:53:05;;;;;;;19.27;5.07;;;;;;;20.37;95.58;101592.63;4796850;29;20023;-81
2022/06/11 08:55:38;;;;;;;24.67;5.40;;;;;;;20.34;96.74;101612.25;4779757;30;20042;-81
2022/06/11 08:58:12;;;;;;;23.13;5.38;;;;;;;20.31;95.80;101615.47;4791624;29;20096;-81
2022/06/11 09:00:51;;;;;;;24.35;5.07;;;;;;;20.29;95.51;101588.38;4804929;29;20118;-81
2022/06/11 09:03:50;;;;;;;23.40;5.55;;;;;;;20.42;96.74;101609.09;4807769;29;20096;-81
2022/06/11 09:06:37;;;;;;;20.08;5.20;;;;;;;20.32;96.97;101568.75;4775209;30;20043;-80
2022/06/11 09:09:12;;;;;;;19.60;4.63;;;;;;;20.41;97.19;101607.47;4793493;29;20035;-80
2022/06/11 09:12:05;;;;;;;20.35;6.00;;;;;;;20.40;97.41;101603.06;4792970;30;20102;-82
2022/06/11 09:14:30;;;;;;;20.20;5.70;;;;;;;20.45;96.45;101611.34;4806348;29;20091;-81
2022/06/11 09:17:19;;;;;;;22.95;5.43;;;;;;;20.30;95.93;101611.09;4810716;29;20505;-80
2022/06/11 09:20:20;;;;;;;22.05;5.25;;;;;;;20.40;97.03;101611.28;4794159;29;20038;-82
2022/06/11 09:23:20;;;;;;;18.05;5.07;;;;;;;20.59;95.59;101606.44;4784629;29;20424;-81
2022/06/11 09:26:04;;;;;;;16.90;4.63;;;;;;;20.57;93.55;101616.81;4791915;29;20024;-81
2022/06/11 09:28:52;;;;;;;23.00;4.90;;;;;;;20.50;95.63;101600.53;4779312;30;20035;-80
2022/06/11 09:31:32;;;;;;;19.08;4.57;;;;;;;20.54;94.57;101606.34;4795961;30;20035;-81
2022/06/11 09:34:20;;;;;;;18.65;4.38;;;;;;;20.49;94.29;101607.03;4821801;29;20054;-82
2022/06/11 09:37:13;;;;;;;18.20;4.97;;;;;;;20.60;93.50;101610.84;4797428;29;20030;-81
2022/06/11 09:39:42;;;;;;;19.20;4.28;;;;;;;20.69;93.71;101603.88;4786902;30;20102;-81
2022/06/11 09:42:34;;;;;;;20.63;5.10;;;;;;;20.68;91.92;101604.97;4794238;30;20100;-82
2022/06/11 09:45:17;;;;;;;19.75;5.05;;;;;;;20.71;92.93;101603.66;4806704;29;20042;-82
2022/06/11 09:47:58;;;;;;;15.77;4.38;;;;;;;20.72;93.11;101597.09;4795971;29;20026;-81
2022/06/11 09:50:35;;;;;;;15.68;4.47;;;;;;;20.78;93.51;101596.09;4811706;29;20038;-82
2022/06/11 09:53:28;;;;;;;19.13;4.45;;;;;;;20.81;93.55;101598.34;4811355;29;20091;-82
2022/06/11 09:56:24;;;;;;;21.60;4.63;;;;;;;20.82;93.68;101602.72;4809214;29;20031;-82
2022/06/11 09:59:11;;;;;;;20.60;4.97;;;;;;;20.73;93.03;101606.94;4809270;29;20023;-81
2022/06/11 10:01:51;;;;;;;21.10;4.70;;;;;;;20.86;93.28;101612.09;4794681;29;20077;-81
2022/06/11 10:04:22;;;;;;;16.80;4.45;;;;;;;20.79;91.97;101584.91;4810668;29;20114;-82
2022/06/11 10:06:57;;;;;;;21.88;4.75;;;;;;;20.88;89.66;101596.25;4792844;29;20026;-82
2022/06/11 10:09:31;;;;;;;19.23;5.00;;;;;;;20.83;90.54;101588.81;4810222;29;20035;-82
2022/06/11 10:12:13;;;;;;;14.95;4.25;;;;;;;21.10;90.36;101605.38;4807176;29;20042;-82
2022/06/11 10:14:47;;;;;;;17.27;4.68;;;;;;;21.07;89.64;101605.06;4789176;29;20446;-82
2022/06/11 10:17:30;;;;;;;18.40;4.87;;;;;;;21.15;88.09;101615.56;4810248;29;20069;-81
2022/06/11 10:20:10;;;;;;;19.35;4.53;;;;;;;21.11;88.08;101593.34;4807873;29;20039;-80
2022/06/11 10:22:50;;;;;;;24.25;5.22;;;;;;;21.22;87.24;101613.47;4799606;30;20039;-80
2022/06/11 10:25:39;;;;;;;19.35;4.80;;;;;;;21.31;85.24;101605.69;4822758;29;20065;-80
2022/06/11 10:28:19;;;;;;;20.23;4.00;;;;;;;21.50;85.73;101615.31;4811844;29;20031;-79
2022/06/11 10:31:08;;;;;;;20.33;4.40;;;;;;;21.46;82.44;101605.94;4809112;29;20031;-79
2022/06/11 10:33:42;;;;;;;21.08;4.55;;;;;;;21.48;82.26;101606.50;4789597;29;20035;-80
2022/06/11 10:36:15;;;;;;;14.02;3.72;;;;;;;21.42;82.41;101593.81;4788972;29;20458;-80
2022/06/11 10:38:49;;;;;;;13.53;3.83;;;;;;;21.44;80.74;101605.38;4792206;29;20042;-81
2022/06/11 10:41:34;;;;;;;17.08;3.88;;;;;;;21.56;81.67;101611.56;4807669;29;20466;-79
2022/06/11 10:44:18;;;;;;;15.15;3.90;;;;;;;21.51;78.93;101610.66;4798936;29;20038;-78
2022/06/11 10:46:44;;;;;;;14.93;3.95;;;;;;;21.36;77.03;101586.66;4809071;29;20034;-80
2022/06/11 10:49:20;;;;;;;17.50;4.55;;;;;;;21.42;75.99;101582.03;4777603;29;20452;-79
2022/06/11 10:52:33;;;;;;;18.83;3.83;;;;;;;21.55;77.81;101592.63;4778509;30;20450;-79
2022/06/11 10:54:58;;;;;;;21.20;4.07;;;;;;;21.63;78.40;101597.69;4782056;30;20047;-79
2022/06/11 10:57:26;;;;;;;15.98;4.25;;;;;;;21.67;76.95;101604.31;4788252;30;20038;-79
2022/06/11 11:00:14;;;;;;;21.40;4.40;;;;;;;21.63;78.86;101597.69;4807852;29;20038;-82
2022/06/11 11:02:49;;;;;;;23.38;4.50;;;;;;;21.56;81.23;101586.91;4803045;29;20047;-77
2022/06/11 11:05:18;;;;;;;20.33;4.88;;;;;;;21.58;79.46;101582.00;4810380;29;20056;-81
2022/06/11 11:07:59;;;;;;;19.80;4.18;;;;;;;21.81;77.67;101602.84;4808446;29;20099;-81
2022/06/11 11:10:30;;;;;;;16.15;3.75;;;;;;;21.81;75.61;101602.84;4819645;29;20091;-84
2022/06/11 11:13:04;;;;;;;18.08;4.28;;;;;;;21.89;75.22;101590.63;4798057;29;20023;-82
2022/06/11 11:15:38;;;;;;;13.73;3.70;;;;;;;22.01;72.20;101604.19;4814484;29;20027;-83
2022/06/11 11:18:19;;;;;;;15.57;4.07;;;;;;;22.03;74.94;101591.06;4813203;29;20042;-83
2022/06/11 11:20:48;;;;;;;16.45;4.03;;;;;;;22.13;76.09;101593.09;4793979;30;20033;-80
2022/06/11 11:23:19;;;;;;;15.38;4.45;;;;;;;21.89;75.13;101552.25;4804155;29;20028;-86
2022/06/11 11:25:52;;;;;;;14.02;3.72;;;;;;;21.92;75.77;101589.25;4822955;29;20042;-84
2022/06/11 11:28:31;;;;;;;16.55;4.25;;;;;;;21.80;78.07;101572.97;4807495;29;20036;-84
2022/06/11 11:31:01;;;;;;;19.23;4.70;;;;;;;21.86;78.22;101591.13;4811051;29;20083;-85
2022/06/11 11:33:34;;;;;;;17.55;4.55;;;;;;;21.83;79.86;101604.53;4809504;29;20031;-84